Time;durP1;ratioP1;P1;durP2;ratioP2;P2;SDS_P1;SDS_P2;PMS_P1;PMS_P2;Temp;Humidity;BMP_temperature;BMP_pressure;BME280_temperature;BME280_humidity;BME280_pressure;Samples;Min_cycle;Max_cycle;Signal;HPM_P1;HPM_P2
2022/12/22 03:25:54;;;;;;;3.30;3.00;;;8.40;99.90;;;;;;5069537;28;20039;-78
2022/12/22 03:28:25;;;;;;;5.90;3.78;;;8.40;99.90;;;;;;5072245;28;20031;-78
2022/12/22 03:31:02;;;;;;;3.40;3.10;;;8.40;99.90;;;;;;5070503;28;20437;-78
2022/12/22 03:33:29;;;;;;;3.17;2.88;;;8.50;99.90;;;;;;5072386;28;20592;-78
2022/12/22 03:35:56;;;;;;;5.00;3.03;;;8.50;99.90;;;;;;5070250;28;20107;-78
2022/12/22 03:38:21;;;;;;;3.05;2.42;;;8.40;99.90;;;;;;5077515;28;20444;-79
2022/12/22 03:40:47;;;;;;;2.22;2.05;;;8.50;99.90;;;;;;5081065;28;20032;-79
2022/12/22 03:49:08;;;;;;;3.67;2.10;;;8.40;99.90;;;;;;5072999;28;20120;-78
2022/12/22 03:51:39;;;;;;;2.20;2.03;;;8.40;99.90;;;;;;5070986;28;20024;-78
2022/12/22 03:54:05;;;;;;;1.92;1.83;;;8.40;99.90;;;;;;5071263;28;20051;-78
2022/12/22 03:56:30;;;;;;;1.65;1.55;;;8.40;99.90;;;;;;5084019;28;20066;-79
2022/12/22 03:58:56;;;;;;;2.08;1.67;;;8.30;99.90;;;;;;5070869;28;20401;-79
2022/12/22 04:01:22;;;;;;;1.70;1.60;;;8.30;99.90;;;;;;5069184;28;20056;-79
2022/12/22 04:03:49;;;;;;;1.75;1.65;;;8.30;99.90;;;;;;5071825;28;20049;-79
2022/12/22 04:06:15;;;;;;;1.60;1.50;;;8.20;99.90;;;;;;5075436;28;20024;-79
2022/12/22 04:08:41;;;;;;;2.42;2.00;;;8.20;99.90;;;;;;5071334;28;20016;-78
2022/12/22 04:13:52;;;;;;;1.67;1.55;;;8.10;99.90;;;;;;5074694;28;20039;-79
2022/12/22 04:16:17;;;;;;;2.53;1.48;;;8.00;99.90;;;;;;5071503;28;20028;-78
2022/12/22 04:18:43;;;;;;;2.42;1.80;;;8.00;99.90;;;;;;5074291;28;20350;-78
2022/12/22 04:21:08;;;;;;;4.68;1.77;;;8.00;99.90;;;;;;5072067;28;20039;-78
2022/12/22 04:23:34;;;;;;;2.25;2.05;;;8.00;99.90;;;;;;5070389;28;20020;-78
2022/12/22 04:25:59;;;;;;;2.33;2.13;;;7.90;99.90;;;;;;5066736;28;20507;-78
2022/12/22 04:28:25;;;;;;;1.85;1.75;;;8.00;99.90;;;;;;5078261;28;20048;-79
2022/12/22 04:30:51;;;;;;;4.63;2.10;;;7.90;99.90;;;;;;5069203;28;20461;-79
2022/12/22 04:33:17;;;;;;;2.15;1.92;;;7.90;99.90;;;;;;5067345;28;20020;-78
2022/12/22 04:35:43;;;;;;;3.08;1.80;;;7.90;99.90;;;;;;5067163;28;20043;-79
2022/12/22 04:38:08;;;;;;;1.85;1.67;;;7.90;99.90;;;;;;5068513;28;20128;-79
2022/12/22 04:40:34;;;;;;;3.70;2.13;;;7.90;99.90;;;;;;5064529;28;20025;-78
2022/12/22 04:42:59;;;;;;;1.80;1.70;;;7.90;99.90;;;;;;5070885;28;20028;-78
2022/12/22 04:45:25;;;;;;;2.38;2.00;;;8.00;99.90;;;;;;5078269;28;20036;-79
2022/12/22 04:47:50;;;;;;;2.10;1.88;;;8.00;99.90;;;;;;5073510;28;20025;-78
2022/12/22 04:50:16;;;;;;;1.45;1.35;;;8.00;99.90;;;;;;5072037;28;20086;-79
2022/12/22 04:52:43;;;;;;;1.67;1.58;;;8.00;99.90;;;;;;5072249;28;20039;-78
2022/12/22 04:55:08;;;;;;;3.65;1.83;;;7.90;99.90;;;;;;5063580;28;20028;-79
2022/12/22 04:57:34;;;;;;;1.38;1.25;;;7.90;99.90;;;;;;5068357;28;20354;-79
2022/12/22 05:00:00;;;;;;;1.13;1.10;;;7.90;99.90;;;;;;5060828;28;20037;-79
2022/12/22 05:02:26;;;;;;;3.00;1.42;;;7.90;99.90;;;;;;5070392;28;20116;-79
2022/12/22 05:04:51;;;;;;;1.15;1.10;;;7.90;99.90;;;;;;5069740;28;20170;-78
2022/12/22 05:07:17;;;;;;;2.97;1.35;;;7.80;99.90;;;;;;5059521;28;20027;-79
2022/12/22 05:09:43;;;;;;;0.95;0.95;;;7.90;99.90;;;;;;5063456;28;20033;-78
2022/12/22 05:14:53;;;;;;;0.70;0.70;;;7.90;99.90;;;;;;5074789;28;20070;-78
2022/12/22 05:17:19;;;;;;;0.98;0.93;;;8.00;99.90;;;;;;5067143;28;20036;-79
2022/12/22 05:19:44;;;;;;;1.00;1.00;;;8.10;99.90;;;;;;5066279;28;20294;-78
2022/12/22 05:22:10;;;;;;;0.88;0.88;;;8.10;99.90;;;;;;5069801;28;20033;-78
2022/12/22 05:24:35;;;;;;;0.98;0.98;;;8.10;99.90;;;;;;5069192;28;20077;-78
2022/12/22 05:27:01;;;;;;;0.90;0.90;;;8.30;99.90;;;;;;5066434;28;20021;-79
2022/12/22 05:29:26;;;;;;;3.80;0.80;;;8.40;99.90;;;;;;5075399;28;20055;-79
2022/12/22 05:31:52;;;;;;;0.95;0.95;;;8.40;99.90;;;;;;5080964;28;20021;-79
2022/12/22 05:34:18;;;;;;;1.15;1.02;;;8.50;99.90;;;;;;5058154;28;20031;-79
2022/12/22 05:36:43;;;;;;;1.45;1.35;;;8.50;99.90;;;;;;5070925;28;20025;-78
2022/12/22 05:39:09;;;;;;;1.85;1.40;;;8.50;99.90;;;;;;5077001;28;20027;-79
2022/12/22 05:41:34;;;;;;;1.98;1.20;;;8.50;99.90;;;;;;5070613;28;20032;-78
2022/12/22 05:44:00;;;;;;;1.83;1.05;;;8.60;99.90;;;;;;5076626;28;20073;-79
2022/12/22 05:46:25;;;;;;;1.40;1.30;;;8.60;99.90;;;;;;5079050;28;20473;-79
2022/12/22 05:48:51;;;;;;;1.73;1.40;;;8.50;99.90;;;;;;5080388;28;20450;-79
2022/12/22 05:51:16;;;;;;;1.13;1.10;;;8.70;99.90;;;;;;5071684;28;20024;-79
2022/12/22 05:53:42;;;;;;;1.42;1.30;;;8.60;99.90;;;;;;5074317;28;20028;-79
2022/12/22 05:56:08;;;;;;;1.48;1.38;;;8.60;99.90;;;;;;5075604;28;20108;-79
2022/12/22 05:58:36;;;;;;;2.25;1.70;;;8.60;99.90;;;;;;5071483;28;20055;-79
2022/12/22 06:01:02;;;;;;;1.40;1.30;;;8.70;99.90;;;;;;5073297;28;20134;-78
2022/12/22 06:03:28;;;;;;;1.55;1.45;;;8.70;99.90;;;;;;5076640;28;20127;-78
2022/12/22 06:05:54;;;;;;;1.52;1.42;;;8.80;99.90;;;;;;5075937;28;20460;-79
2022/12/22 06:08:21;;;;;;;1.30;1.20;;;8.80;99.90;;;;;;5081564;28;20024;-78
2022/12/22 06:10:46;;;;;;;1.23;1.23;;;8.80;99.90;;;;;;5063277;28;20480;-79
2022/12/22 06:13:12;;;;;;;1.50;1.40;;;8.70;99.90;;;;;;5069763;28;20032;-79
2022/12/22 06:15:38;;;;;;;1.55;1.45;;;8.80;99.90;;;;;;5078979;28;20069;-79
2022/12/22 06:18:03;;;;;;;2.17;1.92;;;8.80;99.90;;;;;;5075169;28;20054;-78
2022/12/22 06:20:29;;;;;;;1.83;1.70;;;8.80;99.90;;;;;;5072105;28;20067;-79
2022/12/22 06:22:54;;;;;;;1.77;1.67;;;8.90;99.90;;;;;;5073999;28;20095;-79
2022/12/22 06:25:20;;;;;;;1.92;1.48;;;8.90;99.90;;;;;;5070663;28;20030;-79
2022/12/22 06:27:46;;;;;;;1.85;1.63;;;8.90;99.90;;;;;;5066109;28;20078;-79
2022/12/22 06:30:13;;;;;;;1.75;1.65;;;9.00;99.90;;;;;;5063823;28;20032;-78
2022/12/22 06:32:39;;;;;;;1.70;1.60;;;9.00;99.90;;;;;;5077350;28;20036;-78
2022/12/22 06:35:06;;;;;;;1.70;1.60;;;9.10;99.90;;;;;;5073878;28;20021;-79
2022/12/22 06:37:31;;;;;;;1.75;1.65;;;9.10;99.90;;;;;;5071552;28;20021;-79
2022/12/22 06:39:57;;;;;;;1.52;1.42;;;9.20;99.90;;;;;;5085728;28;20032;-79
2022/12/22 06:45:08;;;;;;;1.42;1.33;;;9.10;99.90;;;;;;5078717;28;20101;-79
2022/12/22 06:47:34;;;;;;;1.38;1.27;;;9.20;99.90;;;;;;5073388;28;20461;-79
2022/12/22 06:49:59;;;;;;;1.52;1.42;;;9.20;99.90;;;;;;5071560;28;20032;-79
2022/12/22 06:52:25;;;;;;;1.90;1.15;;;9.20;99.90;;;;;;5070598;28;20031;-79
2022/12/22 06:54:50;;;;;;;1.70;1.55;;;9.20;99.90;;;;;;5077364;28;20020;-79
2022/12/22 06:57:16;;;;;;;1.75;1.65;;;9.20;99.90;;;;;;5066740;28;20456;-79
2022/12/22 06:59:42;;;;;;;1.20;1.20;;;9.20;99.90;;;;;;5073052;28;20445;-79
2022/12/22 07:02:10;;;;;;;1.60;1.50;;;9.20;99.90;;;;;;5068109;28;20167;-79
2022/12/22 07:04:35;;;;;;;1.70;1.60;;;9.10;99.90;;;;;;5077993;28;20027;-80
2022/12/22 07:07:01;;;;;;;1.48;1.38;;;9.10;99.90;;;;;;5074930;28;20024;-79
2022/12/22 07:09:26;;;;;;;1.40;1.30;;;9.20;99.90;;;;;;5074557;28;20027;-79
2022/12/22 07:11:52;;;;;;;1.48;1.38;;;9.30;99.90;;;;;;5074323;28;20059;-79
2022/12/22 07:14:18;;;;;;;1.23;1.23;;;9.30;99.90;;;;;;5075957;28;20017;-79
2022/12/22 07:16:45;;;;;;;1.70;1.60;;;9.30;99.90;;;;;;5076239;28;20025;-79
2022/12/22 07:19:11;;;;;;;1.75;1.65;;;9.40;99.90;;;;;;5074496;28;20037;-79
2022/12/22 07:21:37;;;;;;;4.80;1.95;;;9.30;99.90;;;;;;5074269;28;20023;-79
2022/12/22 07:24:02;;;;;;;1.48;1.38;;;9.30;99.90;;;;;;5070576;28;20023;-80
2022/12/22 07:26:29;;;;;;;1.35;1.30;;;9.30;99.90;;;;;;5071387;28;20062;-79
2022/12/22 07:28:54;;;;;;;1.90;1.60;;;9.20;99.90;;;;;;5066764;28;20033;-80
2022/12/22 07:31:20;;;;;;;2.03;1.48;;;9.30;99.90;;;;;;5073575;28;20373;-79
2022/12/22 07:33:46;;;;;;;1.92;1.58;;;9.30;99.90;;;;;;5070897;28;20425;-79
2022/12/22 07:36:18;;;;;;;1.27;1.27;;;9.30;99.90;;;;;;5079454;28;20058;-79
2022/12/22 07:38:46;;;;;;;4.45;1.70;;;9.30;99.90;;;;;;5079323;28;20512;-79
2022/12/22 07:43:59;;;;;;;1.55;1.45;;;9.30;99.90;;;;;;5062239;28;20484;-79
2022/12/22 07:46:27;;;;;;;1.73;1.60;;;9.30;99.90;;;;;;5049228;28;20020;-79
2022/12/22 07:51:42;;;;;;;1.60;1.50;;;9.20;99.90;;;;;;5072364;28;20042;-79
2022/12/22 07:54:10;;;;;;;1.13;1.13;;;9.20;99.90;;;;;;5066195;28;20029;-79
2022/12/22 07:56:36;;;;;;;3.72;1.60;;;9.20;99.90;;;;;;5063912;28;20111;-79
2022/12/22 07:59:02;;;;;;;0.93;0.93;;;9.10;99.90;;;;;;5069995;28;20044;-79
2022/12/22 08:01:27;;;;;;;1.67;1.58;;;9.20;99.90;;;;;;5057476;28;20602;-79
2022/12/22 08:03:53;;;;;;;1.38;1.30;;;9.10;99.90;;;;;;5074510;28;20069;-79
2022/12/22 08:06:19;;;;;;;1.38;1.27;;;9.10;99.90;;;;;;5079541;28;20024;-79
2022/12/22 08:08:45;;;;;;;1.50;1.40;;;9.10;99.90;;;;;;5079711;28;20361;-79
2022/12/22 08:11:10;;;;;;;1.40;1.30;;;9.10;99.90;;;;;;5072230;28;20047;-79
2022/12/22 08:13:36;;;;;;;1.55;1.45;;;9.00;99.90;;;;;;5074466;28;20020;-79
2022/12/22 08:16:04;;;;;;;1.02;1.02;;;9.10;99.90;;;;;;5077831;28;20032;-79
2022/12/22 08:18:30;;;;;;;3.38;1.20;;;9.10;99.90;;;;;;5072384;28;20112;-79
2022/12/22 08:20:56;;;;;;;1.33;1.00;;;9.10;99.90;;;;;;5083550;28;20031;-79
2022/12/22 08:23:21;;;;;;;1.00;0.98;;;9.00;99.90;;;;;;5081283;28;20031;-79
2022/12/22 08:25:51;;;;;;;1.17;1.08;;;9.00;99.90;;;;;;5078712;28;20034;-79
2022/12/22 08:28:17;;;;;;;0.90;0.90;;;9.00;99.90;;;;;;5086238;28;20020;-79
2022/12/22 08:30:44;;;;;;;2.03;1.13;;;9.00;99.90;;;;;;5086124;28;20513;-79
2022/12/22 08:33:09;;;;;;;1.20;1.10;;;9.10;99.90;;;;;;5077316;28;20115;-80
2022/12/22 08:35:35;;;;;;;0.95;0.95;;;9.10;99.90;;;;;;5081493;28;20496;-79
2022/12/22 08:38:01;;;;;;;1.00;1.00;;;9.10;99.90;;;;;;5075934;28;20032;-79
2022/12/22 08:40:29;;;;;;;3.10;2.50;;;9.10;99.90;;;;;;5075990;28;20404;-79
2022/12/22 08:43:01;;;;;;;1.10;1.00;;;9.10;99.90;;;;;;5069620;28;20453;-79
2022/12/22 08:45:27;;;;;;;0.68;0.68;;;9.10;99.90;;;;;;5077761;28;20517;-79
2022/12/22 08:47:52;;;;;;;1.15;1.05;;;9.10;99.90;;;;;;5073745;28;20032;-79
2022/12/22 08:50:18;;;;;;;0.70;0.70;;;9.10;99.90;;;;;;5083632;28;20153;-79
2022/12/22 08:52:44;;;;;;;0.73;0.73;;;9.10;99.90;;;;;;5070628;28;20020;-80
2022/12/22 08:55:10;;;;;;;1.10;1.00;;;9.00;99.90;;;;;;5082314;28;20043;-79
2022/12/22 08:57:36;;;;;;;2.97;2.65;;;9.10;99.90;;;;;;5076278;28;20051;-79
2022/12/22 09:00:05;;;;;;;2.38;2.17;;;9.00;99.90;;;;;;5083385;28;20117;-80
2022/12/22 09:02:32;;;;;;;0.93;0.93;;;9.10;99.90;;;;;;5064587;28;20118;-79
2022/12/22 09:04:57;;;;;;;0.80;0.80;;;9.10;99.90;;;;;;5068214;28;20234;-79
2022/12/22 09:07:23;;;;;;;0.70;0.70;;;9.10;99.90;;;;;;5067565;28;20032;-79
2022/12/22 09:09:49;;;;;;;0.65;0.65;;;9.20;99.90;;;;;;5068642;28;20023;-80
2022/12/22 09:12:15;;;;;;;0.60;0.60;;;9.20;99.90;;;;;;5071263;28;20385;-79
2022/12/22 09:14:40;;;;;;;0.40;0.40;;;9.30;99.90;;;;;;5071616;28;20028;-79
2022/12/22 09:17:06;;;;;;;0.55;0.55;;;9.30;99.90;;;;;;5063941;28;20090;-79
2022/12/22 09:19:31;;;;;;;0.50;0.50;;;9.40;99.90;;;;;;5070215;28;20070;-80
2022/12/22 09:21:57;;;;;;;0.45;0.45;;;9.40;99.90;;;;;;5065826;28;20047;-79
2022/12/22 09:24:22;;;;;;;0.45;0.45;;;9.40;99.90;;;;;;5062072;28;20021;-80
2022/12/22 09:26:48;;;;;;;0.50;0.50;;;9.50;99.90;;;;;;5067182;28;20500;-79
2022/12/22 09:29:14;;;;;;;0.40;0.40;;;9.40;99.90;;;;;;5060968;28;20056;-80
2022/12/22 09:31:40;;;;;;;0.47;0.47;;;9.50;99.90;;;;;;5066919;28;20100;-79
2022/12/22 09:34:06;;;;;;;2.92;0.40;;;9.50;99.90;;;;;;5067033;28;20453;-79
2022/12/22 09:36:33;;;;;;;0.45;0.40;;;9.50;99.90;;;;;;5065220;28;20027;-80
2022/12/22 09:39:04;;;;;;;0.40;0.40;;;9.60;99.90;;;;;;5066950;28;20029;-80
2022/12/22 09:41:41;;;;;;;0.40;0.40;;;9.50;99.90;;;;;;5074136;28;20036;-80
2022/12/22 09:44:19;;;;;;;0.45;0.45;;;9.50;99.90;;;;;;5073434;28;20476;-79
2022/12/22 09:46:44;;;;;;;0.55;0.55;;;9.50;99.90;;;;;;5070549;28;20028;-79
2022/12/22 09:49:14;;;;;;;1.67;0.95;;;9.50;99.90;;;;;;5051216;28;20106;-79
2022/12/22 09:51:43;;;;;;;1.58;0.70;;;9.50;99.90;;;;;;5063948;28;20051;-80
2022/12/22 09:54:11;;;;;;;0.75;0.70;;;9.60;99.90;;;;;;5059908;28;20039;-79
2022/12/22 09:56:37;;;;;;;1.10;0.80;;;9.60;99.90;;;;;;5069468;28;20031;-79
2022/12/22 09:59:25;;;;;;;0.90;0.88;;;9.60;99.90;;;;;;5072706;28;20132;-80
2022/12/22 10:02:38;;;;;;;5.15;1.38;;;9.60;99.90;;;;;;5047303;28;20033;-80
2022/12/22 10:05:10;;;;;;;3.03;1.70;;;9.80;99.90;;;;;;5003626;28;20037;-79
2022/12/22 10:07:39;;;;;;;2.03;1.50;;;9.90;99.90;;;;;;4997415;28;20018;-79
2022/12/22 10:10:07;;;;;;;1.40;1.20;;;9.90;99.90;;;;;;5051221;28;20368;-79
2022/12/22 10:12:32;;;;;;;3.22;2.13;;;10.00;99.90;;;;;;5067359;28;20427;-79
2022/12/22 10:14:58;;;;;;;1.58;0.60;;;10.00;99.90;;;;;;5069432;28;20029;-80
2022/12/22 10:17:32;;;;;;;4.38;1.42;;;10.10;99.90;;;;;;5071320;28;20048;-80
2022/12/22 10:20:13;;;;;;;1.55;0.98;;;10.10;99.90;;;;;;5069766;28;20387;-80
2022/12/22 10:22:47;;;;;;;1.30;0.82;;;10.20;99.90;;;;;;5067927;28;20028;-80
2022/12/22 10:25:34;;;;;;;0.50;0.50;;;10.10;99.90;;;;;;5069402;28;20051;-79
2022/12/22 10:28:11;;;;;;;0.68;0.68;;;10.20;99.90;;;;;;5075326;28;20024;-79
2022/12/22 10:30:39;;;;;;;0.75;0.75;;;10.20;99.90;;;;;;5069038;28;20048;-81
2022/12/22 10:33:13;;;;;;;0.60;0.60;;;10.20;99.90;;;;;;5066425;28;20524;-79
2022/12/22 10:35:45;;;;;;;0.95;0.55;;;10.30;99.90;;;;;;5067388;28;20036;-80
2022/12/22 10:38:36;;;;;;;0.70;0.70;;;10.30;99.90;;;;;;5071850;28;20028;-80
2022/12/22 10:41:07;;;;;;;0.70;0.70;;;10.20;99.90;;;;;;5067104;28;20055;-79
2022/12/22 10:43:38;;;;;;;7.82;4.80;;;10.30;99.90;;;;;;5070775;28;20028;-80
2022/12/22 10:46:04;;;;;;;3.22;2.25;;;10.30;99.90;;;;;;5067772;28;20020;-80
2022/12/22 10:48:34;;;;;;;3.70;1.25;;;10.30;99.90;;;;;;5073612;28;20023;-80
2022/12/22 10:51:01;;;;;;;1.73;1.05;;;10.30;99.90;;;;;;5069724;28;20037;-80
2022/12/22 10:53:51;;;;;;;2.42;0.80;;;10.30;99.90;;;;;;5072835;28;20024;-79
2022/12/22 10:56:23;;;;;;;1.73;1.00;;;10.30;99.90;;;;;;5069928;28;20021;-80
2022/12/22 10:58:55;;;;;;;0.80;0.80;;;10.30;99.90;;;;;;5068622;28;20388;-80
2022/12/22 11:01:32;;;;;;;1.63;0.70;;;10.40;99.90;;;;;;5081657;28;20016;-80
2022/12/22 11:04:15;;;;;;;0.70;0.70;;;10.30;99.90;;;;;;5083690;28;20228;-80
2022/12/22 11:06:44;;;;;;;1.17;0.90;;;10.40;99.90;;;;;;5082931;28;20457;-80
2022/12/22 11:09:10;;;;;;;3.08;1.00;;;10.40;99.90;;;;;;5078052;28;20557;-80
2022/12/22 11:12:10;;;;;;;2.17;0.90;;;10.30;99.90;;;;;;5082469;28;20025;-80
2022/12/22 11:14:59;;;;;;;1.05;0.95;;;10.30;99.90;;;;;;5056969;28;20036;-80
2022/12/22 11:17:54;;;;;;;1.13;1.00;;;10.20;99.90;;;;;;5063588;28;20121;-79
2022/12/22 11:20:59;;;;;;;3.13;1.80;;;10.20;99.90;;;;;;5080667;28;20052;-79
2022/12/22 11:23:27;;;;;;;4.82;1.77;;;10.10;99.90;;;;;;5067839;28;20024;-79
2022/12/22 11:25:55;;;;;;;2.92;1.70;;;10.00;99.90;;;;;;5073668;28;20032;-80
2022/12/22 11:28:35;;;;;;;1.42;1.30;;;10.00;99.90;;;;;;5077196;28;20024;-80
2022/12/22 11:31:22;;;;;;;3.10;1.42;;;9.90;99.90;;;;;;5068625;28;20430;-80
2022/12/22 11:34:12;;;;;;;2.03;1.23;;;9.90;99.90;;;;;;5082015;28;20066;-80
2022/12/22 11:36:59;;;;;;;1.48;0.95;;;9.90;99.90;;;;;;5067712;28;20040;-80
2022/12/22 11:39:44;;;;;;;1.95;1.50;;;9.80;99.90;;;;;;5075617;28;20045;-81
2022/12/22 11:42:43;;;;;;;4.93;1.75;;;9.80;99.90;;;;;;5072243;28;20048;-80
2022/12/22 11:45:48;;;;;;;1.40;0.95;;;9.90;99.90;;;;;;5078132;28;20032;-80
2022/12/22 11:48:36;;;;;;;1.10;0.60;;;10.00;99.90;;;;;;5073027;28;20111;-80
2022/12/22 11:51:10;;;;;;;0.93;0.93;;;10.00;99.90;;;;;;5067878;28;20022;-80
2022/12/22 11:54:10;;;;;;;0.95;0.90;;;10.00;99.90;;;;;;5074839;28;20073;-80
2022/12/22 11:56:48;;;;;;;2.42;1.83;;;10.10;99.90;;;;;;5069726;28;20024;-80
2022/12/22 11:59:36;;;;;;;0.80;0.80;;;10.10;99.90;;;;;;5070968;28;20108;-80
2022/12/22 12:02:17;;;;;;;1.38;0.90;;;10.10;99.90;;;;;;5066208;28;20024;-80
2022/12/22 12:05:15;;;;;;;1.15;1.02;;;10.10;99.90;;;;;;5071023;28;20428;-81
2022/12/22 12:07:44;;;;;;;1.10;1.02;;;10.00;99.90;;;;;;5074129;28;20532;-80
2022/12/22 12:10:27;;;;;;;2.40;1.63;;;10.00;99.90;;;;;;5054323;28;20398;-80
2022/12/22 12:13:24;;;;;;;1.65;0.88;;;10.00;99.90;;;;;;5071372;28;20028;-80
2022/12/22 12:16:16;;;;;;;0.70;0.60;;;10.00;99.90;;;;;;5077303;28;20036;-81
2022/12/22 12:18:50;;;;;;;1.35;0.90;;;10.00;99.90;;;;;;5057153;28;20086;-80
2022/12/22 12:21:29;;;;;;;0.85;0.85;;;10.00;99.90;;;;;;5068814;28;20021;-80
2022/12/22 12:24:12;;;;;;;0.55;0.55;;;10.00;99.90;;;;;;5074575;28;20028;-80
2022/12/22 12:26:58;;;;;;;2.05;1.35;;;10.00;99.90;;;;;;5062965;28;20031;-80
2022/12/22 12:29:27;;;;;;;3.10;1.70;;;9.90;99.90;;;;;;5069427;28;20024;-81
2022/12/22 12:32:03;;;;;;;1.98;1.60;;;9.90;99.90;;;;;;5076628;28;20090;-80
2022/12/22 12:34:36;;;;;;;1.90;1.52;;;9.90;99.90;;;;;;5068620;28;20021;-80
2022/12/22 12:37:21;;;;;;;2.67;1.90;;;9.90;99.90;;;;;;5074012;28;20373;-80
2022/12/22 12:40:07;;;;;;;11.48;2.70;;;9.90;99.90;;;;;;5077685;28;20028;-80
2022/12/22 12:42:40;;;;;;;6.82;3.03;;;9.90;99.90;;;;;;5078483;28;20024;-80
2022/12/22 12:45:33;;;;;;;3.30;2.72;;;9.90;99.90;;;;;;5077944;28;20036;-80
2022/12/22 12:48:21;;;;;;;6.28;3.15;;;9.90;99.90;;;;;;5068288;28;20070;-80
2022/12/22 12:50:47;;;;;;;6.70;2.95;;;9.90;99.90;;;;;;5075134;28;20027;-80
2022/12/22 12:53:13;;;;;;;4.53;2.22;;;9.90;99.90;;;;;;5068009;28;20429;-80
2022/12/22 12:55:54;;;;;;;5.72;3.05;;;9.90;99.90;;;;;;5074009;28;20028;-80
2022/12/22 12:58:52;;;;;;;5.10;2.97;;;9.90;99.90;;;;;;5069986;28;20053;-80
2022/12/22 13:01:28;;;;;;;7.07;2.50;;;9.90;99.90;;;;;;5039031;28;20131;-80
2022/12/22 13:03:56;;;;;;;4.05;1.92;;;9.90;99.90;;;;;;5062539;28;20024;-80
2022/12/22 13:06:49;;;;;;;2.42;1.80;;;9.90;99.90;;;;;;5061388;28;20029;-80
2022/12/22 13:09:23;;;;;;;1.50;1.33;;;9.90;99.90;;;;;;5062720;28;20270;-80
2022/12/22 13:11:49;;;;;;;2.53;1.38;;;9.90;99.90;;;;;;5077428;28;20023;-80
2022/12/22 13:14:52;;;;;;;2.65;1.20;;;9.80;99.90;;;;;;5065346;28;20021;-80
2022/12/22 13:17:32;;;;;;;7.68;1.40;;;9.80;99.90;;;;;;5065136;28;20049;-80
2022/12/22 13:20:02;;;;;;;1.00;1.00;;;9.90;99.90;;;;;;5067957;28;20558;-80
2022/12/22 13:22:28;;;;;;;1.80;1.00;;;9.90;99.90;;;;;;5078032;28;20123;-80
2022/12/22 13:24:54;;;;;;;3.13;1.52;;;9.80;99.90;;;;;;5068614;28;20092;-80
2022/12/22 13:27:21;;;;;;;2.40;1.55;;;9.80;99.90;;;;;;5063707;28;20030;-80
2022/12/22 13:29:48;;;;;;;1.25;1.20;;;9.80;99.90;;;;;;5069615;28;20021;-80
2022/12/22 13:32:24;;;;;;;2.58;1.20;;;9.80;99.90;;;;;;5072099;28;20041;-80
2022/12/22 13:35:00;;;;;;;2.15;0.88;;;9.70;99.90;;;;;;5068450;28;20051;-80
2022/12/22 13:37:27;;;;;;;4.30;1.30;;;9.70;99.90;;;;;;5070749;28;20246;-80
2022/12/22 13:40:06;;;;;;;1.30;1.25;;;9.70;99.90;;;;;;5068962;28;20438;-80
2022/12/22 13:42:38;;;;;;;1.35;1.25;;;9.70;99.90;;;;;;5066553;28;20090;-80
2022/12/22 13:45:11;;;;;;;2.45;1.80;;;9.60;99.90;;;;;;5055015;28;20036;-80
2022/12/22 13:47:41;;;;;;;4.28;2.80;;;9.60;99.90;;;;;;5072154;28;20027;-80
2022/12/22 13:50:24;;;;;;;1.65;1.50;;;9.60;99.90;;;;;;5072767;28;20102;-80
2022/12/22 13:52:51;;;;;;;8.75;5.60;;;9.60;99.90;;;;;;5071521;28;20487;-79
2022/12/22 13:55:23;;;;;;;3.67;3.03;;;9.60;99.90;;;;;;5067537;28;20024;-80
2022/12/22 13:57:54;;;;;;;4.78;4.03;;;9.60;99.90;;;;;;5074878;28;20119;-79
2022/12/22 14:00:24;;;;;;;4.95;4.00;;;9.60;99.90;;;;;;5079161;28;20044;-80
2022/12/22 14:02:49;;;;;;;5.00;3.30;;;9.60;99.90;;;;;;5072949;28;20051;-81
2022/12/22 14:05:16;;;;;;;6.25;2.30;;;9.50;99.90;;;;;;5075201;28;20471;-84
2022/12/22 14:07:58;;;;;;;5.05;3.60;;;9.50;99.90;;;;;;5070700;28;20511;-80
2022/12/22 14:10:31;;;;;;;4.72;3.63;;;9.50;99.90;;;;;;5075303;28;20024;-80
2022/12/22 14:12:57;;;;;;;4.15;3.03;;;9.50;99.90;;;;;;5060705;28;20025;-80
2022/12/22 14:15:23;;;;;;;4.38;3.15;;;9.50;99.90;;;;;;5069985;28;20109;-80
2022/12/22 14:17:48;;;;;;;2.85;2.30;;;9.50;99.90;;;;;;5075060;28;20115;-80
2022/12/22 14:20:26;;;;;;;13.23;2.60;;;9.50;99.90;;;;;;5075309;28;20303;-80
2022/12/22 14:22:57;;;;;;;3.97;2.60;;;9.40;99.90;;;;;;5074116;28;20024;-80
2022/12/22 14:25:51;;;;;;;4.80;2.70;;;9.40;99.90;;;;;;5073768;28;20020;-80
2022/12/22 14:28:25;;;;;;;5.30;2.40;;;9.30;99.90;;;;;;5073387;28;20028;-80
2022/12/22 14:30:57;;;;;;;4.13;2.65;;;9.30;99.90;;;;;;5072721;28;20016;-80
2022/12/22 14:33:25;;;;;;;3.88;3.30;;;9.30;99.90;;;;;;5062725;28;20016;-80
2022/12/22 14:35:50;;;;;;;3.55;3.15;;;9.30;99.90;;;;;;5063877;28;20044;-79
2022/12/22 14:38:18;;;;;;;3.08;2.78;;;9.30;99.90;;;;;;5085663;28;20047;-80
2022/12/22 14:40:44;;;;;;;3.50;3.00;;;9.30;99.90;;;;;;5063936;28;20626;-80
2022/12/22 14:43:19;;;;;;;3.03;2.72;;;9.20;99.90;;;;;;5076364;28;20460;-80
2022/12/22 14:45:49;;;;;;;3.03;2.75;;;9.20;99.90;;;;;;5062555;28;20075;-80
2022/12/22 14:48:25;;;;;;;5.60;3.05;;;9.20;99.90;;;;;;5050205;28;20121;-80
2022/12/22 14:50:52;;;;;;;4.63;2.97;;;9.20;99.90;;;;;;5076169;28;20038;-80
2022/12/22 14:53:33;;;;;;;3.55;3.15;;;9.10;99.90;;;;;;5074932;28;20361;-80
2022/12/22 14:55:59;;;;;;;6.10;3.63;;;9.10;99.90;;;;;;5075626;28;20111;-80
2022/12/22 14:58:30;;;;;;;4.57;3.70;;;9.20;99.90;;;;;;5081375;28;20050;-80
2022/12/22 15:01:28;;;;;;;3.78;3.28;;;9.10;99.90;;;;;;5070993;28;20042;-80
2022/12/22 15:04:03;;;;;;;4.75;2.97;;;9.10;99.90;;;;;;5053962;28;20481;-80
2022/12/22 15:06:34;;;;;;;3.33;2.65;;;9.00;99.90;;;;;;5066784;28;20012;-79
2022/12/22 15:09:24;;;;;;;2.75;2.55;;;9.00;99.90;;;;;;5078952;28;20020;-80
2022/12/22 15:12:00;;;;;;;3.80;2.92;;;9.00;99.90;;;;;;5072493;28;20028;-80
2022/12/22 15:14:29;;;;;;;5.75;4.43;;;9.00;99.90;;;;;;5069218;28;20016;-80
2022/12/22 15:16:58;;;;;;;5.13;3.55;;;9.00;99.90;;;;;;5065492;28;20043;-80
2022/12/22 15:19:32;;;;;;;4.25;3.45;;;8.90;99.90;;;;;;5073723;28;21136;-80
2022/12/22 15:21:59;;;;;;;4.30;3.05;;;8.90;99.90;;;;;;5072221;28;20024;-81
2022/12/22 15:24:25;;;;;;;5.78;3.55;;;8.90;99.90;;;;;;5065914;28;20024;-80
2022/12/22 15:26:50;;;;;;;5.63;3.10;;;8.90;99.90;;;;;;5076509;28;20025;-80
2022/12/22 15:29:16;;;;;;;6.07;3.33;;;8.80;99.90;;;;;;5072571;28;20021;-81
2022/12/22 15:31:44;;;;;;;5.45;3.30;;;8.70;99.90;;;;;;5074964;28;20021;-80
2022/12/22 15:34:15;;;;;;;5.50;3.67;;;8.70;99.90;;;;;;5068619;28;20051;-80
2022/12/22 15:36:41;;;;;;;5.50;3.60;;;8.60;99.90;;;;;;5068259;28;20541;-80
2022/12/22 15:39:15;;;;;;;9.43;4.18;;;8.60;99.90;;;;;;5078710;28;20028;-80
2022/12/22 15:41:42;;;;;;;5.40;3.93;;;8.60;99.90;;;;;;5082667;28;20024;-81
2022/12/22 15:44:07;;;;;;;5.10;3.75;;;8.60;99.90;;;;;;5075769;28;20309;-80
2022/12/22 15:46:33;;;;;;;2.90;2.10;;;8.60;99.90;;;;;;5075012;28;20016;-79
2022/12/22 15:48:59;;;;;;;3.40;2.13;;;8.60;99.90;;;;;;5081573;28;20051;-80
2022/12/22 15:51:29;;;;;;;2.00;1.60;;;8.60;99.90;;;;;;5076082;28;20529;-79
2022/12/22 15:53:57;;;;;;;1.25;1.15;;;8.70;99.90;;;;;;5077893;28;20103;-79
2022/12/22 15:56:25;;;;;;;1.60;1.48;;;8.80;99.90;;;;;;5073001;28;20032;-79
2022/12/22 15:58:52;;;;;;;3.33;1.40;;;8.90;99.90;;;;;;5070268;28;20036;-80
2022/12/22 16:01:17;;;;;;;2.67;1.73;;;8.90;99.90;;;;;;5062675;28;20541;-79
2022/12/22 16:03:43;;;;;;;7.35;1.75;;;8.90;99.90;;;;;;5069399;28;20119;-79
2022/12/22 16:06:17;;;;;;;4.07;1.92;;;8.90;99.90;;;;;;5064760;28;20060;-79
2022/12/22 16:08:48;;;;;;;2.35;1.90;;;8.90;99.90;;;;;;5076076;28;20028;-79
2022/12/22 16:11:14;;;;;;;1.92;1.75;;;8.90;99.90;;;;;;5063745;28;20051;-79
2022/12/22 16:13:40;;;;;;;5.25;2.05;;;8.90;99.90;;;;;;5072258;28;20016;-79
2022/12/22 16:16:07;;;;;;;7.32;2.30;;;8.90;99.90;;;;;;5075254;28;20052;-79
2022/12/22 16:18:33;;;;;;;2.45;1.85;;;8.90;99.90;;;;;;5070691;28;20016;-79
2022/12/22 16:21:06;;;;;;;2.92;2.15;;;8.80;99.90;;;;;;5067443;28;20024;-79
2022/12/22 16:23:32;;;;;;;1.63;1.52;;;8.80;99.90;;;;;;5067646;28;20029;-80
2022/12/22 16:26:00;;;;;;;2.15;1.85;;;8.80;99.90;;;;;;5067422;28;20377;-79
2022/12/22 16:28:25;;;;;;;4.05;1.90;;;8.80;99.90;;;;;;5073555;28;20429;-79
2022/12/22 16:30:51;;;;;;;3.15;1.75;;;8.70;99.90;;;;;;5063175;28;20099;-80
2022/12/22 16:33:18;;;;;;;2.10;1.90;;;8.70;99.90;;;;;;5067287;28;20500;-79
2022/12/22 16:35:44;;;;;;;3.85;2.30;;;8.70;99.90;;;;;;5067465;28;20024;-79
2022/12/22 16:38:10;;;;;;;4.78;2.30;;;8.60;99.90;;;;;;5075258;28;20071;-79
2022/12/22 16:40:42;;;;;;;2.92;2.50;;;8.60;99.90;;;;;;5066728;28;20473;-79
2022/12/22 16:43:14;;;;;;;3.65;2.75;;;8.60;99.90;;;;;;5074002;28;20024;-79
2022/12/22 16:45:43;;;;;;;4.82;2.40;;;8.50;99.90;;;;;;5074348;28;20597;-79
2022/12/22 16:48:21;;;;;;;3.03;2.50;;;8.50;99.90;;;;;;5075323;28;20027;-79
2022/12/22 16:50:47;;;;;;;9.15;5.60;;;8.40;99.90;;;;;;5077236;28;20428;-79
2022/12/22 16:53:15;;;;;;;8.27;3.78;;;8.30;99.90;;;;;;5075265;28;20021;-79
2022/12/22 16:55:41;;;;;;;7.85;2.83;;;8.30;99.90;;;;;;5068266;28;20098;-79
2022/12/22 16:58:10;;;;;;;9.85;2.75;;;8.30;99.90;;;;;;5067087;28;20051;-79